Kearney, NE (68847)

11:37 AM CDT on April 19, 2015 (GMT -0500)
Regency | | Change Station
CLOSE
Current Station
Personal Weather Station
Location: Kearney, NE
Elevation: 2224 ft
Nearby Weather Stations

Elev 2224 ft 40.72 °N, 99.08 °W | Updated 7 seconds ago

Rain
Rain
44.6 °F
Feels Like 37 °F
N
18.4
Wind Variable Wind from NNE
Gusts 26.5 mph

Today
High -- | Low -- °F
--% Chance of Precip.
Yesterday
High -- | Low -- °F
Precip. -- in
6:51 AM 8:19 PM
New Moon, 1% visible
Pressure 29.95 in
Visibility 10.0 miles
Clouds Scattered Clouds 2300 ft
Mostly Cloudy 2900 ft
Overcast 3500 ft
Windchill 37 °F
Dew Point 36 °F
Humidity 72%
Rainfall 0.20 in
Snow Depth Not available.
UV 2 out of 12
Pollen 9.70 out of 12
Air Quality Not available.
Flu Activity Local Activity
METAR KHDE 191615Z AUTO 36026G35KT 10SM RA SCT023 BKN029 OVC035 06/02 A2995 RMK AO2 LTG DSNT SE T00640019

More Conditions Fewer Conditions

Pressure 29.95 in
Visibility 10.0 miles
Clouds Scattered Clouds 2300 ft
Mostly Cloudy 2900 ft
Overcast 3500 ft
Windchill 37 °F
Dew Point 36 °F
Humidity 72%
Rainfall 0.20 in
Snow Depth Not available.
UV 2 out of 12
Pollen 9.70 out of 12
Air Quality Not available.
Flu Activity Local Activity
METAR KHDE 191615Z AUTO 36026G35KT 10SM RA SCT023 BKN029 OVC035 06/02 A2995 RMK AO2 LTG DSNT SE T00640019

More Conditions Fewer Conditions

10-Day Weather Forecast

Almanac

Astronomy

Apr. 19, 2015 Rise Set
Actual Time
Civil Twilight
Nautical Twilight
Astronomical Twilight
Moon
Length of Visible Light
Length of Day
Tomorrow will be .
, % of the Moon is Illuminated

Today's Extremes

State Highs State Lows

Community

WunderPhotos

Upload Photos

1,814,844 photos uploaded!

WunderBlogs® & News

Nearby

Air Quality

  Air Quality AQ Index Pollutant
Not available.

Snow Depth

Station Depth Elevation

Earthquake Activity

City Distance Mag. Time & Date
Minimum magnitude displayed is 2.5.

Coastal Water Temperatures

Place Temperature

Stations

Nearby Weather Stations

Station Location Temp. Windchill Dew Point Humidity Wind Precip. Elev Updated Type